createdAt,value
2019-02-27T00:00:23.702Z,86.24
2019-02-27T00:01:23.659Z,86.05
2019-02-27T00:02:23.634Z,86.24
2019-02-27T00:03:23.597Z,86.43
2019-02-27T00:04:23.563Z,86.15
2019-02-27T00:05:23.524Z,86.15
2019-02-27T00:06:23.493Z,86.24
2019-02-27T00:07:23.458Z,86.24
2019-02-27T00:08:26.787Z,86.05
2019-02-27T00:09:23.384Z,86.15
2019-02-27T00:10:23.350Z,86.24
2019-02-27T00:11:23.315Z,86.15
2019-02-27T00:12:23.280Z,85.86
2019-02-27T00:13:24.870Z,85.86
2019-02-27T00:14:23.210Z,86.34
2019-02-27T00:15:23.173Z,86.24
2019-02-27T00:16:23.134Z,85.96
2019-02-27T00:17:23.104Z,86.34
2019-02-27T00:18:23.971Z,86.05
2019-02-27T00:19:23.030Z,86.15
2019-02-27T00:20:22.996Z,86.05
2019-02-27T00:21:22.954Z,86.24
2019-02-27T00:22:22.924Z,86.24
2019-02-27T00:23:24.185Z,86.24
2019-02-27T00:24:22.853Z,85.96
2019-02-27T00:25:22.811Z,85.68
2019-02-27T00:26:22.784Z,86.24
2019-02-27T00:27:22.744Z,86.15
2019-02-27T00:28:23.348Z,86.05
2019-02-27T00:29:22.673Z,85.68
2019-02-27T00:30:22.634Z,85.86
2019-02-27T00:31:22.600Z,85.86
2019-02-27T00:32:22.560Z,85.58
2019-02-27T00:33:25.254Z,86.34
2019-02-27T00:34:22.496Z,86.24
2019-02-27T00:35:22.466Z,86.24
2019-02-27T00:36:22.416Z,85.86
2019-02-27T00:37:22.381Z,86.34
2019-02-27T00:38:22.775Z,86.43
2019-02-27T00:39:22.310Z,86.05
2019-02-27T00:40:22.289Z,85.86
2019-02-27T00:41:22.246Z,85.68
2019-02-27T00:42:23.078Z,85.86
2019-02-27T00:43:22.165Z,86.05
2019-02-27T00:44:22.135Z,86.05
2019-02-27T00:45:22.096Z,86.24
2019-02-27T00:46:22.062Z,86.05
2019-02-27T00:47:22.023Z,86.34
2019-02-27T00:48:25.980Z,86.34
2019-02-27T00:49:21.966Z,85.96
2019-02-27T00:50:21.918Z,86.15
2019-02-27T00:51:21.881Z,86.15
2019-02-27T00:52:21.843Z,86.05
2019-02-27T00:53:22.034Z,86.20
2019-02-27T00:54:21.773Z,86.05
2019-02-27T00:55:21.737Z,85.86
2019-02-27T00:56:21.710Z,86.20
2019-02-27T00:57:21.667Z,85.82
2019-02-27T00:58:21.636Z,86.05
2019-02-27T00:59:21.598Z,86.11
2019-02-27T01:00:21.558Z,85.96
2019-02-27T01:01:21.526Z,86.30
2019-02-27T01:02:21.496Z,85.63
2019-02-27T01:03:23.908Z,85.77
2019-02-27T01:04:21.419Z,86.05
2019-02-27T01:05:21.387Z,85.58
2019-02-27T01:06:21.342Z,85.68
2019-02-27T01:07:21.468Z,86.39
2019-02-27T01:08:21.282Z,86.01
2019-02-27T01:09:21.244Z,86.20
2019-02-27T01:10:21.197Z,86.20
2019-02-27T01:11:21.172Z,86.20
2019-02-27T01:12:22.897Z,85.91
2019-02-27T01:13:21.102Z,85.91
2019-02-27T01:14:21.063Z,85.72
2019-02-27T01:15:21.027Z,86.11
2019-02-27T01:16:20.987Z,85.44
2019-02-27T01:17:23.742Z,86.01
2019-02-27T01:18:20.919Z,86.11
2019-02-27T01:19:20.889Z,86.11
2019-02-27T01:20:20.844Z,85.82
2019-02-27T01:21:20.812Z,86.01
2019-02-27T01:22:20.776Z,86.11
2019-02-27T01:23:20.734Z,85.63
2019-02-27T01:24:20.700Z,85.82
2019-02-27T01:25:22.912Z,86.20
2019-02-27T01:26:20.625Z,86.11
2019-02-27T01:27:20.598Z,86.20
2019-02-27T01:28:20.558Z,85.72
2019-02-27T01:29:20.538Z,85.72
2019-02-27T01:30:23.892Z,85.82
2019-02-27T01:31:21.963Z,85.82
2019-02-27T01:32:20.413Z,86.01
2019-02-27T01:33:20.375Z,86.20
2019-02-27T01:34:20.345Z,85.91
2019-02-27T01:35:20.300Z,85.91
2019-02-27T01:36:24.228Z,86.11
2019-02-27T01:37:20.234Z,86.01
2019-02-27T01:38:20.198Z,86.11
2019-02-27T01:39:20.164Z,86.01
2019-02-27T01:40:20.133Z,86.11
2019-02-27T01:41:24.424Z,85.82
2019-02-27T01:42:20.055Z,86.11
2019-02-27T01:43:20.019Z,85.82
2019-02-27T01:44:19.978Z,86.01
2019-02-27T01:45:21.047Z,85.91
2019-02-27T01:46:19.915Z,86.11
2019-02-27T01:47:19.874Z,85.82
2019-02-27T01:48:19.831Z,86.11
2019-02-27T01:49:19.809Z,85.91
2019-02-27T01:50:19.932Z,86.01
2019-02-27T01:51:19.737Z,85.72
2019-02-27T01:52:19.686Z,85.63
2019-02-27T01:53:19.659Z,85.63
2019-02-27T01:54:19.619Z,85.91
2019-02-27T01:55:21.725Z,85.82
2019-02-27T01:56:19.549Z,86.01
2019-02-27T01:57:19.509Z,85.91
2019-02-27T01:58:19.474Z,85.82
2019-02-27T01:59:19.442Z,86.01
2019-02-27T02:00:23.023Z,85.63
2019-02-27T02:01:19.362Z,85.82
2019-02-27T02:02:19.326Z,85.82
2019-02-27T02:03:19.300Z,86.01
2019-02-27T02:04:20.295Z,85.91
2019-02-27T02:05:19.225Z,85.63
2019-02-27T02:06:19.240Z,85.44
2019-02-27T02:07:19.155Z,85.44
2019-02-27T02:08:19.105Z,85.72
2019-02-27T02:09:21.248Z,85.35
2019-02-27T02:10:19.036Z,84.97
2019-02-27T02:11:19.001Z,85.44
2019-02-27T02:12:18.971Z,85.63
2019-02-27T02:13:18.936Z,85.53
2019-02-27T02:14:21.066Z,84.97
2019-02-27T02:15:18.866Z,85.25
2019-02-27T02:16:18.828Z,85.63
2019-02-27T02:17:18.788Z,85.44
2019-02-27T02:18:18.773Z,85.25
2019-02-27T02:19:19.010Z,85.63
2019-02-27T02:20:18.683Z,85.35
2019-02-27T02:21:18.641Z,85.63
2019-02-27T02:22:18.613Z,85.53
2019-02-27T02:23:18.575Z,85.53
2019-02-27T02:24:20.899Z,85.35
2019-02-27T02:25:18.506Z,85.53
2019-02-27T02:26:18.465Z,85.63
2019-02-27T02:27:18.432Z,85.63
2019-02-27T02:28:18.392Z,85.63
2019-02-27T02:29:20.385Z,85.44
2019-02-27T02:30:18.318Z,84.97
2019-02-27T02:31:18.285Z,85.21
2019-02-27T02:32:18.302Z,85.40
2019-02-27T02:33:18.209Z,85.59
2019-02-27T02:34:18.178Z,85.59
2019-02-27T02:35:18.139Z,85.30
2019-02-27T02:36:18.101Z,85.49
2019-02-27T02:37:18.061Z,85.40
2019-02-27T02:38:18.022Z,85.40
2019-02-27T02:39:19.258Z,85.49
2019-02-27T02:40:17.959Z,85.49
2019-02-27T02:41:17.920Z,85.30
2019-02-27T02:42:17.888Z,85.68
2019-02-27T02:43:17.847Z,85.40
2019-02-27T02:44:20.667Z,85.78
2019-02-27T02:45:17.780Z,85.30
2019-02-27T02:46:17.730Z,85.40
2019-02-27T02:47:21.034Z,85.40
2019-02-27T02:48:17.659Z,85.49
2019-02-27T02:49:17.635Z,85.49
2019-02-27T02:50:18.455Z,85.21
2019-02-27T02:51:17.555Z,85.49
2019-02-27T02:52:17.520Z,85.78
2019-02-27T02:53:17.483Z,85.59
2019-02-27T02:54:17.454Z,85.21
2019-02-27T02:55:17.397Z,85.21
2019-02-27T02:56:17.375Z,85.11
2019-02-27T02:57:17.335Z,85.11
2019-02-27T02:58:17.308Z,85.78
2019-02-27T02:59:17.263Z,85.59
2019-02-27T03:00:17.232Z,85.40
2019-02-27T03:01:17.185Z,85.11
2019-02-27T03:02:17.155Z,85.30
2019-02-27T03:03:17.116Z,85.02
2019-02-27T03:04:17.078Z,85.11
2019-02-27T03:05:17.044Z,85.11
2019-02-27T03:06:17.009Z,85.11
2019-02-27T03:07:16.971Z,85.21
2019-02-27T03:08:20.095Z,85.02
2019-02-27T03:09:16.899Z,85.11
2019-02-27T03:10:16.860Z,85.02
2019-02-27T03:11:19.065Z,85.30
2019-02-27T03:12:16.793Z,85.30
2019-02-27T03:13:16.749Z,85.36
2019-02-27T03:14:17.590Z,85.45
2019-02-27T03:15:16.682Z,84.50
2019-02-27T03:16:16.647Z,85.45
2019-02-27T03:17:18.292Z,85.45
2019-02-27T03:18:16.565Z,85.36
2019-02-27T03:19:16.533Z,85.36
2019-02-27T03:20:17.643Z,85.45
2019-02-27T03:21:16.466Z,85.55
2019-02-27T03:22:16.426Z,85.45
2019-02-27T03:23:16.490Z,85.17
2019-02-27T03:24:16.345Z,85.17
2019-02-27T03:25:16.312Z,84.78
2019-02-27T03:26:17.647Z,85.55
2019-02-27T03:27:16.244Z,85.45
2019-02-27T03:28:16.195Z,84.69
2019-02-27T03:29:17.351Z,84.69
2019-02-27T03:30:16.130Z,84.59
2019-02-27T03:31:18.587Z,84.69
2019-02-27T03:32:16.053Z,84.69
2019-02-27T03:33:22.842Z,84.50
2019-02-27T03:34:15.985Z,84.78
2019-02-27T03:35:15.943Z,84.59
2019-02-27T03:36:15.905Z,84.69
2019-02-27T03:37:15.875Z,84.59
2019-02-27T03:38:15.826Z,84.50
2019-02-27T03:39:15.797Z,84.69
2019-02-27T03:40:15.766Z,84.59
2019-02-27T03:41:15.726Z,84.78
2019-02-27T03:42:15.682Z,84.78
2019-02-27T03:43:15.651Z,84.69
2019-02-27T03:44:20.234Z,84.98
2019-02-27T03:45:15.568Z,84.88
2019-02-27T03:46:15.545Z,84.59
2019-02-27T03:47:16.737Z,84.50
2019-02-27T03:48:15.473Z,84.41
2019-02-27T03:49:15.426Z,84.12
2019-02-27T03:50:15.753Z,84.41
2019-02-27T03:51:15.351Z,83.94
2019-02-27T03:52:15.318Z,84.22
2019-02-27T03:53:15.274Z,84.22
2019-02-27T03:54:20.905Z,84.31
2019-02-27T03:55:15.205Z,84.03
2019-02-27T03:56:15.167Z,84.31
2019-02-27T03:57:18.951Z,84.22
2019-02-27T03:58:15.096Z,84.22
2019-02-27T03:59:15.047Z,84.31
2019-02-27T04:00:18.324Z,84.12
2019-02-27T04:01:14.991Z,84.31
2019-02-27T04:02:14.947Z,83.84
2019-02-27T04:03:18.262Z,84.41
2019-02-27T04:04:14.883Z,84.41
2019-02-27T04:05:14.837Z,84.22
2019-02-27T04:06:19.637Z,84.22
2019-02-27T04:07:14.773Z,84.22
2019-02-27T04:08:14.738Z,84.31
2019-02-27T04:09:18.812Z,83.74
2019-02-27T04:10:14.659Z,83.94
2019-02-27T04:11:14.618Z,83.46
2019-02-27T04:12:16.580Z,83.46
2019-02-27T04:13:14.537Z,83.65
2019-02-27T04:14:14.515Z,83.55
2019-02-27T04:15:17.725Z,83.55
2019-02-27T04:16:14.507Z,83.55
2019-02-27T04:17:14.396Z,84.12
2019-02-27T04:18:14.349Z,83.74
2019-02-27T04:19:14.318Z,83.55
2019-02-27T04:20:15.514Z,83.36
2019-02-27T04:21:14.254Z,83.46
2019-02-27T04:22:14.208Z,83.36
2019-02-27T04:23:14.174Z,83.55
2019-02-27T04:24:14.140Z,83.55
2019-02-27T04:25:14.091Z,83.74
2019-02-27T04:26:14.062Z,83.36
2019-02-27T04:27:20.201Z,83.84
2019-02-27T04:28:13.981Z,83.74
2019-02-27T04:29:13.948Z,83.74
2019-02-27T04:30:15.023Z,83.46
2019-02-27T04:31:13.883Z,83.74
2019-02-27T04:32:13.842Z,83.46
2019-02-27T04:33:13.805Z,83.84
2019-02-27T04:34:13.765Z,83.84
2019-02-27T04:35:13.727Z,84.03
2019-02-27T04:36:13.684Z,84.03
2019-02-27T04:37:13.650Z,84.03
2019-02-27T04:38:13.614Z,82.98
2019-02-27T04:39:13.579Z,83.55
2019-02-27T04:40:13.542Z,82.89
2019-02-27T04:41:17.803Z,83.08
2019-02-27T04:42:13.460Z,83.27
2019-02-27T04:43:13.429Z,83.27
2019-02-27T04:44:13.394Z,83.27
2019-02-27T04:45:13.355Z,83.27
2019-02-27T04:46:13.315Z,83.17
2019-02-27T04:47:13.284Z,83.27
2019-02-27T04:48:13.249Z,83.17
2019-02-27T04:49:13.214Z,83.36
2019-02-27T04:50:13.165Z,83.17
2019-02-27T04:51:16.862Z,83.36
2019-02-27T04:52:13.098Z,83.36
2019-02-27T04:53:13.061Z,83.27
2019-02-27T04:54:13.018Z,82.79
2019-02-27T04:55:15.494Z,83.08
2019-02-27T04:56:12.944Z,82.70
2019-02-27T04:57:12.914Z,82.98
2019-02-27T04:58:12.864Z,82.79
2019-02-27T04:59:12.846Z,83.08
2019-02-27T05:00:12.799Z,82.79
2019-02-27T05:01:12.763Z,82.98
2019-02-27T05:02:14.544Z,82.89
2019-02-27T05:03:12.686Z,82.98
2019-02-27T05:04:12.646Z,82.89
2019-02-27T05:05:12.609Z,82.89
2019-02-27T05:06:14.488Z,82.79
2019-02-27T05:07:12.540Z,82.79
2019-02-27T05:08:12.495Z,82.79
2019-02-27T05:09:12.823Z,82.89
2019-02-27T05:10:12.421Z,82.79
2019-02-27T05:11:14.160Z,82.79
2019-02-27T05:12:12.356Z,82.98
2019-02-27T05:13:12.320Z,82.89
2019-02-27T05:14:12.284Z,82.79
2019-02-27T05:15:12.250Z,82.98
2019-02-27T05:16:14.122Z,82.60
2019-02-27T05:17:12.171Z,82.98
2019-02-27T05:18:12.120Z,82.79
2019-02-27T05:19:12.091Z,82.89
2019-02-27T05:20:12.692Z,82.79
2019-02-27T05:21:12.020Z,82.89
2019-02-27T05:22:11.978Z,82.79
2019-02-27T05:23:11.941Z,82.85
2019-02-27T05:24:11.904Z,83.32
2019-02-27T05:25:12.194Z,83.17
2019-02-27T05:26:11.838Z,83.04
2019-02-27T05:27:11.795Z,83.23
2019-02-27T05:28:11.764Z,83.23
2019-02-27T05:29:11.717Z,83.13
2019-02-27T05:30:12.314Z,83.13
2019-02-27T05:31:11.640Z,83.23
2019-02-27T05:32:11.621Z,82.94
2019-02-27T05:33:11.571Z,83.04
2019-02-27T05:34:13.542Z,82.75
2019-02-27T05:35:11.507Z,83.89
2019-02-27T05:36:11.457Z,83.70
2019-02-27T05:37:11.429Z,83.70
2019-02-27T05:38:11.392Z,83.61
2019-02-27T05:39:11.351Z,83.61
2019-02-27T05:40:11.314Z,83.89
2019-02-27T05:41:11.281Z,83.70
2019-02-27T05:42:13.145Z,83.98
2019-02-27T05:43:13.859Z,83.61
2019-02-27T05:44:11.166Z,83.61
2019-02-27T05:45:11.116Z,83.89
2019-02-27T05:46:11.089Z,83.23
2019-02-27T05:47:11.846Z,82.75
2019-02-27T05:48:11.007Z,83.89
2019-02-27T05:49:10.978Z,82.94
2019-02-27T05:50:10.937Z,83.13
2019-02-27T05:51:10.904Z,83.04
2019-02-27T05:52:11.902Z,83.13
2019-02-27T05:53:10.827Z,83.04
2019-02-27T05:54:10.784Z,83.13
2019-02-27T05:55:10.748Z,83.23
2019-02-27T05:56:15.357Z,83.04
2019-02-27T05:57:10.692Z,83.04
2019-02-27T05:58:10.650Z,83.04
2019-02-27T05:59:10.598Z,83.04
2019-02-27T06:00:10.573Z,83.23
2019-02-27T06:01:10.525Z,83.23
2019-02-27T06:02:11.015Z,83.23
2019-02-27T06:03:10.449Z,83.32
2019-02-27T06:04:10.418Z,83.42
2019-02-27T06:05:10.369Z,83.04
2019-02-27T06:06:11.790Z,83.13
2019-02-27T06:07:10.299Z,83.13
2019-02-27T06:08:10.267Z,83.32
2019-02-27T06:09:10.932Z,83.23
2019-02-27T06:10:10.297Z,83.04
2019-02-27T06:11:10.147Z,83.42
2019-02-27T06:12:10.113Z,83.32
2019-02-27T06:13:14.015Z,83.13
2019-02-27T06:14:10.046Z,83.42
2019-02-27T06:15:09.998Z,83.09
2019-02-27T06:16:09.960Z,83.32
2019-02-27T06:17:10.138Z,83.28
2019-02-27T06:18:09.885Z,82.90
2019-02-27T06:19:09.851Z,82.75
2019-02-27T06:20:09.810Z,83.00
2019-02-27T06:21:09.770Z,83.28
2019-02-27T06:22:09.740Z,82.90
2019-02-27T06:23:09.705Z,83.37
2019-02-27T06:24:12.438Z,82.81
2019-02-27T06:25:09.634Z,82.94
2019-02-27T06:26:09.583Z,82.90
2019-02-27T06:27:09.555Z,83.32
2019-02-27T06:28:09.508Z,83.28
2019-02-27T06:29:09.479Z,83.18
2019-02-27T06:30:09.435Z,83.28
2019-02-27T06:31:09.400Z,82.14
2019-02-27T06:32:12.144Z,83.00
2019-02-27T06:33:11.596Z,82.62
2019-02-27T06:34:09.298Z,82.62
2019-02-27T06:35:09.246Z,82.43
2019-02-27T06:36:09.210Z,82.62
2019-02-27T06:37:09.171Z,82.81
2019-02-27T06:38:09.140Z,82.71
2019-02-27T06:39:09.109Z,83.00
2019-02-27T06:40:09.062Z,82.05
2019-02-27T06:41:09.026Z,82.43
2019-02-27T06:42:09.002Z,82.52
2019-02-27T06:43:08.943Z,82.52
2019-02-27T06:44:08.939Z,82.62
2019-02-27T06:45:10.214Z,81.95
2019-02-27T06:46:08.843Z,82.24
2019-02-27T06:47:08.791Z,82.33
2019-02-27T06:48:10.265Z,82.52
2019-02-27T06:49:08.715Z,81.76
2019-02-27T06:50:08.686Z,82.33
2019-02-27T06:51:08.651Z,82.43
2019-02-27T06:52:09.355Z,81.95
2019-02-27T06:53:08.573Z,81.86
2019-02-27T06:54:08.528Z,82.71
2019-02-27T06:55:08.490Z,82.33
2019-02-27T06:56:08.466Z,81.86
2019-02-27T06:57:08.477Z,81.76
2019-02-27T06:58:08.387Z,82.05
2019-02-27T06:59:08.342Z,82.33
2019-02-27T07:00:08.307Z,82.14
2019-02-27T07:01:09.689Z,81.86
2019-02-27T07:02:08.225Z,81.86
2019-02-27T07:03:08.195Z,82.43
2019-02-27T07:04:08.317Z,81.86
2019-02-27T07:05:08.118Z,82.05
2019-02-27T07:06:08.084Z,82.14
2019-02-27T07:07:08.041Z,81.67
2019-02-27T07:08:08.001Z,81.95
2019-02-27T07:09:11.403Z,81.95
2019-02-27T07:10:07.936Z,81.76
2019-02-27T07:11:10.889Z,81.20
2019-02-27T07:12:07.854Z,81.33
2019-02-27T07:13:07.823Z,81.43
2019-02-27T07:14:07.777Z,81.24
2019-02-27T07:15:10.312Z,80.57
2019-02-27T07:16:07.709Z,80.38
2019-02-27T07:17:07.659Z,80.76
2019-02-27T07:18:07.628Z,80.57
2019-02-27T07:19:07.592Z,80.95
2019-02-27T07:20:08.839Z,80.67
2019-02-27T07:21:07.518Z,80.38
2019-02-27T07:22:09.321Z,80.29
2019-02-27T07:23:07.444Z,80.29
2019-02-27T07:24:07.404Z,80.29
2019-02-27T07:25:07.360Z,80.29
2019-02-27T07:26:07.327Z,79.91
2019-02-27T07:27:07.292Z,79.34
2019-02-27T07:28:09.127Z,79.34
2019-02-27T07:29:07.216Z,79.34
2019-02-27T07:30:08.041Z,79.53
2019-02-27T07:31:07.143Z,79.34
2019-02-27T07:32:07.114Z,79.53
2019-02-27T07:33:07.405Z,79.34
2019-02-27T07:34:07.030Z,79.34
2019-02-27T07:35:06.993Z,79.38
2019-02-27T07:36:06.952Z,79.19
2019-02-27T07:37:06.919Z,79.28
2019-02-27T07:38:06.879Z,79.85
2019-02-27T07:39:06.838Z,80.33
2019-02-27T07:40:08.602Z,80.43
2019-02-27T07:41:06.774Z,79.85
2019-02-27T07:42:06.729Z,80.43
2019-02-27T07:43:06.695Z,80.04
2019-02-27T07:44:06.649Z,80.33
2019-02-27T07:45:08.089Z,80.24
2019-02-27T07:46:06.580Z,80.24
2019-02-27T07:47:06.540Z,79.95
2019-02-27T07:48:06.505Z,80.04
2019-02-27T07:49:06.478Z,80.43
2019-02-27T07:50:08.736Z,80.90
2019-02-27T07:51:06.388Z,80.90
2019-02-27T07:52:06.360Z,80.80
2019-02-27T07:53:06.323Z,80.43
2019-02-27T07:54:06.280Z,80.94
2019-02-27T07:55:18.644Z,80.62
2019-02-27T07:56:06.209Z,80.65
2019-02-27T07:57:06.171Z,80.65
2019-02-27T07:58:06.153Z,81.23
2019-02-27T07:59:06.101Z,81.04
2019-02-27T08:00:06.060Z,81.04
2019-02-27T08:01:06.030Z,81.23
2019-02-27T08:02:05.992Z,81.60
2019-02-27T08:03:09.064Z,81.41
2019-02-27T08:04:05.921Z,81.51
2019-02-27T08:05:05.885Z,81.70
2019-02-27T08:06:05.837Z,81.70
2019-02-27T08:07:05.804Z,82.27
2019-02-27T08:08:05.768Z,82.17
2019-02-27T08:09:05.726Z,82.36
2019-02-27T08:10:05.691Z,81.98
2019-02-27T08:11:05.672Z,81.93
2019-02-27T08:12:05.625Z,82.12
2019-02-27T08:13:05.582Z,82.31
2019-02-27T08:14:05.550Z,82.31
2019-02-27T08:15:05.517Z,82.31
2019-02-27T08:16:05.479Z,83.16
2019-02-27T08:17:17.023Z,82.78
2019-02-27T08:18:05.484Z,83.07
2019-02-27T08:19:05.372Z,83.16
2019-02-27T08:20:05.335Z,82.69
2019-02-27T08:21:05.296Z,82.88
2019-02-27T08:22:05.256Z,83.36
2019-02-27T08:23:06.832Z,83.26
2019-02-27T08:24:07.399Z,83.20
2019-02-27T08:25:05.153Z,82.73
2019-02-27T08:26:05.712Z,83.01
2019-02-27T08:27:07.152Z,82.73
2019-02-27T08:28:05.043Z,82.92
2019-02-27T08:29:05.005Z,82.92
2019-02-27T08:30:04.971Z,83.78
2019-02-27T08:31:04.938Z,83.11
2019-02-27T08:32:05.586Z,83.30
2019-02-27T08:33:08.215Z,83.39
2019-02-27T08:34:04.831Z,83.20
2019-02-27T08:35:04.788Z,83.49
2019-02-27T08:36:04.753Z,83.97
2019-02-27T08:37:04.708Z,83.39
2019-02-27T08:38:04.686Z,83.82
2019-02-27T08:39:04.658Z,83.53
2019-02-27T08:40:04.613Z,83.91
2019-02-27T08:41:04.568Z,83.62
2019-02-27T08:42:04.557Z,83.62
2019-02-27T08:43:04.502Z,83.62
2019-02-27T08:44:04.468Z,84.01
2019-02-27T08:45:04.427Z,83.91
2019-02-27T08:46:04.402Z,84.01
2019-02-27T08:47:04.450Z,84.01
2019-02-27T08:48:04.340Z,83.82
2019-02-27T08:49:04.293Z,83.72
2019-02-27T08:50:04.262Z,84.14
2019-02-27T08:51:08.389Z,84.77
2019-02-27T08:52:04.183Z,84.52
2019-02-27T08:53:04.149Z,84.05
2019-02-27T08:54:04.119Z,83.95
2019-02-27T08:55:05.716Z,84.05
2019-02-27T08:56:04.053Z,83.86
2019-02-27T08:57:04.013Z,84.24
2019-02-27T08:58:03.973Z,83.76
2019-02-27T08:59:05.874Z,84.14
2019-02-27T09:00:03.901Z,84.81
2019-02-27T09:01:03.863Z,84.91
2019-02-27T09:02:03.830Z,83.95
2019-02-27T09:03:03.859Z,83.81
2019-02-27T09:04:03.752Z,84.95
2019-02-27T09:05:03.730Z,85.42
2019-02-27T09:06:03.694Z,84.09
2019-02-27T09:07:03.655Z,87.90
2019-02-27T09:08:03.619Z,85.33
2019-02-27T09:09:03.588Z,84.47
2019-02-27T09:10:03.545Z,84.85
2019-02-27T09:11:06.545Z,84.76
2019-02-27T09:12:03.484Z,85.47
2019-02-27T09:13:05.751Z,86.42
2019-02-27T09:14:03.409Z,84.99
2019-02-27T09:15:03.385Z,85.47
2019-02-27T09:16:03.343Z,85.08
2019-02-27T09:17:03.306Z,85.18
2019-02-27T09:18:03.275Z,85.18
2019-02-27T09:19:03.245Z,84.42
2019-02-27T09:20:03.211Z,85.28
2019-02-27T09:21:03.172Z,85.70
2019-02-27T09:22:03.163Z,84.65
2019-02-27T09:23:03.109Z,85.13
2019-02-27T09:24:03.070Z,85.32
2019-02-27T09:25:03.036Z,84.56
2019-02-27T09:26:03.543Z,85.03
2019-02-27T09:27:02.970Z,84.84
2019-02-27T09:28:03.543Z,84.17
2019-02-27T09:29:02.901Z,85.22
2019-02-27T09:30:02.911Z,84.46
2019-02-27T09:31:04.290Z,84.03
2019-02-27T09:32:02.804Z,84.46
2019-02-27T09:33:02.765Z,85.17
2019-02-27T09:34:02.725Z,83.93
2019-02-27T09:35:02.702Z,84.41
2019-02-27T09:36:02.657Z,84.50
2019-02-27T09:37:02.629Z,84.69
2019-02-27T09:38:02.590Z,84.22
2019-02-27T09:39:02.565Z,84.22
2019-02-27T09:40:05.695Z,84.50
2019-02-27T09:41:02.497Z,83.88
2019-02-27T09:42:02.460Z,83.59
2019-02-27T09:43:02.418Z,83.12
2019-02-27T09:44:02.390Z,83.59
2019-02-27T09:45:02.350Z,83.02
2019-02-27T09:46:02.354Z,83.21
2019-02-27T09:47:02.290Z,82.35
2019-02-27T09:48:02.257Z,81.63
2019-02-27T09:49:06.807Z,81.82
2019-02-27T09:50:02.190Z,81.25
2019-02-27T09:51:02.157Z,82.01
2019-02-27T09:52:02.122Z,81.15
2019-02-27T09:53:03.694Z,81.15
2019-02-27T09:54:02.067Z,81.92
2019-02-27T09:55:02.024Z,80.77
2019-02-27T09:56:01.990Z,80.43
2019-02-27T09:57:02.847Z,80.81
2019-02-27T09:58:01.926Z,79.00
2019-02-27T09:59:01.896Z,77.09
2019-02-27T10:00:02.968Z,73.28
2019-02-27T10:01:03.149Z,77.57
2019-02-27T10:02:01.804Z,75.32
2019-02-27T10:03:01.769Z,71.63
2019-02-27T10:04:01.741Z,65.07
2019-02-27T10:05:03.377Z,63.96
2019-02-27T10:06:01.676Z,60.38
2019-02-27T10:07:01.642Z,57.73
2019-02-27T10:08:01.628Z,55.87
2019-02-27T10:09:01.584Z,51.97
2019-02-27T10:10:01.562Z,49.91
2019-02-27T10:11:01.530Z,48.59
2019-02-27T10:12:01.499Z,46.69
2019-02-27T10:13:03.239Z,44.62
2019-02-27T10:14:01.453Z,43.49
2019-02-27T10:15:01.426Z,41.78
2019-02-27T10:16:01.733Z,40.07
2019-02-27T10:17:01.391Z,38.83
2019-02-27T10:18:01.355Z,38.45
2019-02-27T10:19:01.327Z,37.58
2019-02-27T10:20:02.712Z,37.58
2019-02-27T10:21:01.300Z,37.71
2019-02-27T10:22:01.269Z,35.52
2019-02-27T10:23:01.249Z,35.05
2019-02-27T10:24:04.457Z,34.39
2019-02-27T10:25:01.198Z,33.84
2019-02-27T10:26:01.178Z,32.31
2019-02-27T10:27:01.154Z,31.65
2019-02-27T10:28:04.458Z,31.57
2019-02-27T10:29:01.118Z,30.21
2019-02-27T10:30:01.108Z,29.26
2019-02-27T10:31:01.075Z,28.89
2019-02-27T10:32:01.387Z,28.11
2019-02-27T10:33:03.166Z,29.38
2019-02-27T10:34:01.013Z,28.53
2019-02-27T10:35:00.992Z,28.53
2019-02-27T10:36:03.669Z,27.76
2019-02-27T10:37:00.993Z,27.10
2019-02-27T10:38:00.945Z,27.89
2019-02-27T10:39:02.061Z,26.82
2019-02-27T10:40:00.899Z,25.86
2019-02-27T10:41:00.884Z,25.38
2019-02-27T10:42:00.865Z,24.51
2019-02-27T10:43:00.844Z,24.41
2019-02-27T10:44:00.820Z,25.01
2019-02-27T10:45:00.811Z,24.71
2019-02-27T10:46:00.803Z,24.32
2019-02-27T10:47:00.859Z,25.09
2019-02-27T10:48:00.755Z,23.44
2019-02-27T10:49:00.754Z,24.44
2019-02-27T10:50:02.127Z,23.36
2019-02-27T10:51:00.714Z,23.39
2019-02-27T10:52:00.685Z,23.39
2019-02-27T10:53:00.675Z,23.11
2019-02-27T10:54:04.644Z,22.13
2019-02-27T10:55:00.641Z,22.13
2019-02-27T10:56:00.629Z,21.74
2019-02-27T10:57:00.602Z,21.94
2019-02-27T10:58:00.594Z,23.11
2019-02-27T10:59:00.573Z,22.73
2019-02-27T11:00:00.564Z,22.24
2019-02-27T11:01:01.207Z,21.07
2019-02-27T11:02:00.552Z,20.78
2019-02-27T11:03:00.510Z,20.98
2019-02-27T11:04:03.069Z,19.60
2019-02-27T11:05:00.498Z,18.72
2019-02-27T11:06:00.461Z,18.63
2019-02-27T11:07:00.447Z,18.05
2019-02-27T11:08:00.426Z,18.63
2019-02-27T11:09:04.481Z,20.48
2019-02-27T11:10:00.399Z,21.18
2019-02-27T11:11:00.395Z,18.74
2019-02-27T11:12:00.370Z,18.54
2019-02-27T11:13:05.728Z,20.12
2019-02-27T11:14:00.348Z,18.07
2019-02-27T11:15:00.331Z,18.07
2019-02-27T11:16:00.297Z,17.97
2019-02-27T11:17:02.564Z,16.91
2019-02-27T11:18:04.261Z,19.65
2019-02-27T11:19:00.256Z,18.77
2019-02-27T11:20:00.367Z,18.37
2019-02-27T11:21:00.227Z,17.10
2019-02-27T11:22:00.215Z,15.91
2019-02-27T11:23:00.195Z,17.39
2019-02-27T11:24:00.181Z,18.27
2019-02-27T11:25:00.316Z,16.82
2019-02-27T11:26:00.143Z,15.83
2019-02-27T11:27:00.135Z,16.78
2019-02-27T11:28:00.116Z,17.77
2019-02-27T11:29:00.108Z,16.50
2019-02-27T11:30:02.904Z,14.75
2019-02-27T11:31:00.087Z,15.52
2019-02-27T11:32:00.096Z,15.41
2019-02-27T11:33:00.046Z,15.41
2019-02-27T11:34:01.147Z,16.47
2019-02-27T11:35:00.014Z,17.46
2019-02-27T11:36:00.001Z,15.90
2019-02-27T11:36:59.982Z,16.09
2019-02-27T11:37:59.968Z,16.59
2019-02-27T11:38:59.968Z,16.50
2019-02-27T11:39:59.954Z,15.44
2019-02-27T11:40:59.931Z,14.75
2019-02-27T11:41:59.908Z,15.04
2019-02-27T11:43:01.085Z,15.52
2019-02-27T11:43:59.885Z,15.04
2019-02-27T11:44:59.862Z,14.84
2019-02-27T11:45:59.846Z,15.43
2019-02-27T11:46:59.832Z,15.63
2019-02-27T11:47:59.815Z,15.83
2019-02-27T11:49:03.051Z,15.05
2019-02-27T11:49:59.779Z,15.25
2019-02-27T11:50:59.777Z,14.75
2019-02-27T11:51:59.749Z,15.33
2019-02-27T11:53:02.829Z,15.52
2019-02-27T11:53:59.724Z,15.52
2019-02-27T11:54:59.708Z,16.71
2019-02-27T11:55:59.698Z,15.34
2019-02-27T11:56:59.683Z,15.53
2019-02-27T11:58:04.507Z,15.61
2019-02-27T11:58:59.637Z,15.90
2019-02-27T11:59:59.628Z,15.90
2019-02-27T12:00:59.609Z,16.39
2019-02-27T12:01:59.618Z,15.71
2019-02-27T12:02:59.590Z,15.61
2019-02-27T12:03:59.568Z,15.41
2019-02-27T12:04:59.553Z,15.60
2019-02-27T12:05:59.547Z,15.70
2019-02-27T12:06:59.519Z,15.61
2019-02-27T12:07:59.498Z,16.00
2019-02-27T12:09:00.306Z,15.51
2019-02-27T12:09:59.474Z,15.80
2019-02-27T12:10:59.454Z,15.61
2019-02-27T12:11:59.434Z,15.31
2019-02-27T12:13:00.918Z,15.80
2019-02-27T12:13:59.403Z,16.09
2019-02-27T12:14:59.383Z,16.19
2019-02-27T12:15:59.375Z,17.86
2019-02-27T12:16:59.365Z,16.60
2019-02-27T12:18:00.434Z,16.02
2019-02-27T12:18:59.338Z,17.20
2019-02-27T12:19:59.300Z,14.47
2019-02-27T12:20:59.283Z,14.37
2019-02-27T12:22:00.240Z,14.28
2019-02-27T12:22:59.250Z,14.26
2019-02-27T12:23:59.238Z,14.83
2019-02-27T12:24:59.215Z,14.75
2019-02-27T12:25:59.948Z,15.63
2019-02-27T12:26:59.184Z,15.53
2019-02-27T12:27:59.165Z,16.71
2019-02-27T12:28:59.159Z,16.02
2019-02-27T12:30:00.114Z,15.53
2019-02-27T12:30:59.119Z,15.82
2019-02-27T12:31:59.106Z,16.41
2019-02-27T12:32:59.079Z,16.41
2019-02-27T12:34:02.484Z,16.42
2019-02-27T12:34:59.034Z,17.49
2019-02-27T12:35:59.016Z,16.42
2019-02-27T12:36:59.010Z,17.30
2019-02-27T12:37:58.994Z,17.69
2019-02-27T12:38:58.972Z,17.19
2019-02-27T12:39:58.949Z,16.51
2019-02-27T12:40:59.089Z,15.83
2019-02-27T12:41:58.920Z,16.41
2019-02-27T12:42:58.902Z,16.59
2019-02-27T12:43:58.887Z,16.67
2019-02-27T12:44:58.871Z,16.84
2019-02-27T12:46:01.043Z,17.52
2019-02-27T12:46:58.831Z,17.80
2019-02-27T12:47:58.803Z,18.37
2019-02-27T12:48:58.782Z,19.51
2019-02-27T12:49:58.766Z,20.01
2019-02-27T12:51:03.411Z,19.81
2019-02-27T12:51:58.726Z,20.60